Time;durP1;ratioP1;P1;durP2;ratioP2;P2;SDS_P1;SDS_P2;PMS_P1;PMS_P2;Temp;Humidity;BMP_temperature;BMP_pressure;BME280_temperature;BME280_humidity;BME280_pressure;Samples;Min_cycle;Max_cycle;Signal;HPM_P1;HPM_P2
2024/01/13 00:01:45;;;;;;;11.70;9.30;;;2.90;1.00;;;;;;5092032;28;20244;-77
2024/01/13 00:04:12;;;;;;;16.38;8.93;;;2.90;1.00;;;;;;5090808;28;20295;-77
2024/01/13 00:06:39;;;;;;;11.65;7.85;;;2.80;1.00;;;;;;5089188;28;20248;-77
2024/01/13 00:09:06;;;;;;;12.65;7.78;;;2.80;1.00;;;;;;5092320;28;21050;-78
2024/01/13 00:11:35;;;;;;;15.68;8.45;;;2.80;1.00;;;;;;5089882;28;20319;-74
2024/01/13 00:14:02;;;;;;;14.48;9.02;;;2.90;1.00;;;;;;5091636;28;20239;-78
2024/01/13 00:16:29;;;;;;;16.45;8.55;;;2.90;1.00;;;;;;5090568;28;20267;-78
2024/01/13 00:18:56;;;;;;;15.50;8.30;;;2.90;1.00;;;;;;5089568;28;20663;-77
2024/01/13 00:21:23;;;;;;;11.88;7.97;;;2.90;1.00;;;;;;5095113;28;20244;-76
2024/01/13 00:23:50;;;;;;;12.98;7.82;;;2.90;1.00;;;;;;5109627;27;20293;-78
2024/01/13 00:26:17;;;;;;;15.77;8.63;;;2.90;1.00;;;;;;5111120;28;20239;-77
2024/01/13 00:28:46;;;;;;;12.40;7.47;;;2.90;1.00;;;;;;5098164;27;20327;-78
2024/01/13 00:31:13;;;;;;;13.20;8.20;;;2.90;1.00;;;;;;5108837;27;20314;-77
2024/01/13 00:33:43;;;;;;;14.07;8.52;;;2.90;1.00;;;;;;5109350;27;20239;-75
2024/01/13 00:36:11;;;;;;;14.43;7.88;;;2.90;1.00;;;;;;5111031;27;20994;-78
2024/01/13 00:38:38;;;;;;;14.18;7.75;;;3.00;1.00;;;;;;5107532;27;20941;-77
2024/01/13 00:41:06;;;;;;;13.98;8.63;;;3.00;1.00;;;;;;5109829;28;20245;-78
2024/01/13 00:43:33;;;;;;;21.95;10.35;;;3.00;1.00;;;;;;5106279;27;20735;-78
2024/01/13 00:46:02;;;;;;;12.93;9.43;;;3.00;1.00;;;;;;5110462;28;20235;-78
2024/01/13 00:48:29;;;;;;;15.48;8.00;;;2.90;1.00;;;;;;5114229;28;20318;-78
2024/01/13 00:50:56;;;;;;;10.40;7.45;;;2.90;1.00;;;;;;5111478;28;20236;-76
2024/01/13 00:53:23;;;;;;;11.18;8.23;;;2.90;1.00;;;;;;5110104;28;20291;-78
2024/01/13 00:55:50;;;;;;;13.43;7.43;;;2.90;1.00;;;;;;5108841;28;20250;-77
2024/01/13 00:58:18;;;;;;;12.45;7.65;;;2.90;1.00;;;;;;5112100;28;20227;-78
2024/01/13 01:00:45;;;;;;;11.75;7.65;;;2.90;1.00;;;;;;5111532;28;20241;-77
2024/01/13 01:03:14;;;;;;;10.00;7.28;;;3.00;1.00;;;;;;5111549;28;21081;-76
2024/01/13 01:05:43;;;;;;;12.88;7.97;;;3.00;1.00;;;;;;5111380;28;20322;-76
2024/01/13 01:08:12;;;;;;;13.25;8.48;;;3.00;1.00;;;;;;5110182;28;20727;-72
2024/01/13 01:10:39;;;;;;;12.80;6.97;;;2.90;1.00;;;;;;5107264;27;20313;-72
2024/01/13 01:13:06;;;;;;;15.00;8.02;;;2.90;1.00;;;;;;5109960;28;20223;-75
2024/01/13 01:15:33;;;;;;;12.10;6.90;;;2.90;1.00;;;;;;5108774;27;20242;-70
2024/01/13 01:18:00;;;;;;;15.00;9.05;;;3.00;1.00;;;;;;5107096;27;20232;-73
2024/01/13 01:20:29;;;;;;;14.98;7.85;;;3.00;1.00;;;;;;5107901;28;20243;-72
2024/01/13 01:22:57;;;;;;;12.13;7.82;;;3.00;1.00;;;;;;5106595;27;20592;-73
2024/01/13 01:25:24;;;;;;;11.50;7.25;;;3.10;1.00;;;;;;5109930;27;20263;-73
2024/01/13 01:27:52;;;;;;;9.88;6.85;;;3.10;1.00;;;;;;5105775;28;20309;-73
2024/01/13 01:30:20;;;;;;;13.52;7.15;;;3.10;1.00;;;;;;5106619;28;20267;-75
2024/01/13 01:32:49;;;;;;;11.55;7.13;;;3.10;1.00;;;;;;5109557;28;20239;-75
2024/01/13 01:35:17;;;;;;;10.88;6.75;;;3.10;1.00;;;;;;5107394;27;20242;-77
2024/01/13 01:37:45;;;;;;;9.25;5.80;;;3.10;1.00;;;;;;5109087;28;20265;-72
2024/01/13 01:40:17;;;;;;;12.45;6.90;;;3.10;1.00;;;;;;5110471;28;20337;-75
2024/01/13 01:42:44;;;;;;;7.47;6.18;;;3.10;1.00;;;;;;5109138;27;20239;-75
2024/01/13 01:45:13;;;;;;;11.18;6.22;;;3.20;1.00;;;;;;5094753;27;20660;-73
2024/01/13 01:47:49;;;;;;;10.98;7.13;;;3.20;1.00;;;;;;5106627;28;20239;-75
2024/01/13 01:50:16;;;;;;;11.57;6.22;;;3.20;1.00;;;;;;5110574;28;21191;-73
2024/01/13 01:52:45;;;;;;;10.90;6.30;;;3.20;1.00;;;;;;5104672;27;20777;-76
2024/01/13 01:55:16;;;;;;;12.25;6.07;;;3.20;1.00;;;;;;5107712;28;20587;-76
2024/01/13 01:57:43;;;;;;;13.07;5.57;;;3.20;1.00;;;;;;5106043;28;20748;-77
2024/01/13 02:00:12;;;;;;;7.78;5.22;;;3.10;1.00;;;;;;5105163;28;20262;-75
2024/01/13 02:02:41;;;;;;;10.95;5.63;;;3.10;1.00;;;;;;5108779;27;20246;-76
2024/01/13 02:05:09;;;;;;;14.50;5.85;;;3.10;1.00;;;;;;5108699;27;20242;-73
2024/01/13 02:07:38;;;;;;;15.05;8.38;;;3.10;1.00;;;;;;5110271;27;21096;-75
2024/01/13 02:10:05;;;;;;;11.07;6.25;;;3.10;1.00;;;;;;5105620;28;20737;-75
2024/01/13 02:12:33;;;;;;;17.50;6.13;;;3.10;1.00;;;;;;5107691;27;21100;-75
2024/01/13 02:15:01;;;;;;;9.57;5.68;;;3.10;1.00;;;;;;5108775;28;20677;-76
2024/01/13 02:17:31;;;;;;;11.10;6.00;;;3.10;1.00;;;;;;5108360;28;20975;-77
2024/01/13 02:20:00;;;;;;;9.32;5.97;;;3.10;1.00;;;;;;5106921;28;20329;-72
2024/01/13 02:22:28;;;;;;;12.10;6.53;;;3.10;1.00;;;;;;5111070;27;20284;-74
2024/01/13 02:24:55;;;;;;;10.93;5.88;;;3.10;1.00;;;;;;5108463;28;20243;-73
2024/01/13 02:27:22;;;;;;;9.32;5.75;;;3.10;1.00;;;;;;5110272;28;20239;-72
2024/01/13 02:29:52;;;;;;;7.18;5.18;;;3.10;1.00;;;;;;5106655;27;20239;-73
2024/01/13 02:32:19;;;;;;;7.90;5.38;;;3.10;1.00;;;;;;5111373;27;20216;-73
2024/01/13 02:34:46;;;;;;;9.23;6.15;;;3.10;1.00;;;;;;5111741;28;20326;-76
2024/01/13 02:37:17;;;;;;;7.80;4.78;;;3.10;1.00;;;;;;5096176;27;20258;-78
2024/01/13 02:39:46;;;;;;;10.88;4.97;;;3.10;1.00;;;;;;5108304;28;20247;-72
2024/01/13 02:42:14;;;;;;;10.85;5.28;;;3.10;1.00;;;;;;5111931;27;20238;-77
2024/01/13 02:44:41;;;;;;;8.50;5.13;;;3.10;1.00;;;;;;5109645;27;20782;-73
2024/01/13 02:47:09;;;;;;;8.25;5.78;;;3.10;1.00;;;;;;5110612;28;20257;-74
2024/01/13 02:49:39;;;;;;;11.55;6.03;;;3.10;1.00;;;;;;5109446;27;20235;-75
2024/01/13 02:52:07;;;;;;;9.55;4.93;;;3.10;1.00;;;;;;5107141;27;20239;-75
2024/01/13 02:54:34;;;;;;;9.32;5.47;;;3.10;1.00;;;;;;5109919;28;20262;-71
2024/01/13 02:57:02;;;;;;;8.82;5.18;;;3.10;1.00;;;;;;5111880;27;20246;-72
2024/01/13 02:59:30;;;;;;;8.40;5.00;;;3.10;1.00;;;;;;5106244;28;20238;-76
2024/01/13 03:01:57;;;;;;;6.25;5.03;;;3.10;1.00;;;;;;5108850;27;20283;-72
2024/01/13 03:04:25;;;;;;;8.75;5.20;;;3.10;1.00;;;;;;5109199;27;20234;-74
2024/01/13 03:06:53;;;;;;;7.13;5.05;;;3.10;1.00;;;;;;5105831;28;21110;-74
2024/01/13 03:09:20;;;;;;;10.85;5.22;;;3.10;1.00;;;;;;5111370;28;20977;-75
2024/01/13 03:11:47;;;;;;;7.90;5.60;;;3.10;1.00;;;;;;5111135;28;20231;-72
2024/01/13 03:14:16;;;;;;;7.78;5.18;;;3.10;1.00;;;;;;5109546;28;20702;-74
2024/01/13 03:16:43;;;;;;;7.43;5.13;;;3.10;1.00;;;;;;5111034;28;20239;-72
2024/01/13 03:19:10;;;;;;;9.90;4.93;;;3.10;1.00;;;;;;5110223;28;20261;-72
2024/01/13 03:21:39;;;;;;;5.35;4.50;;;3.10;1.00;;;;;;5106921;28;20271;-73
2024/01/13 03:24:06;;;;;;;9.00;4.95;;;3.00;1.00;;;;;;5101379;28;20235;-71
2024/01/13 03:26:32;;;;;;;6.72;4.63;;;3.00;1.00;;;;;;5107377;28;20339;-73
2024/01/13 03:29:00;;;;;;;8.43;5.00;;;3.00;1.00;;;;;;5109447;27;20239;-78
2024/01/13 03:31:28;;;;;;;7.78;4.40;;;3.00;1.00;;;;;;5108910;28;20718;-76
2024/01/13 03:33:55;;;;;;;9.13;4.70;;;3.00;1.00;;;;;;5108657;27;20370;-80
2024/01/13 03:36:28;;;;;;;7.53;4.50;;;3.00;1.00;;;;;;5102319;28;20235;-77
2024/01/13 03:38:56;;;;;;;6.65;4.50;;;2.90;1.00;;;;;;5109271;28;20238;-76
2024/01/13 03:41:25;;;;;;;5.00;3.50;;;2.90;1.00;;;;;;5113193;27;20726;-76
2024/01/13 03:43:52;;;;;;;5.28;4.78;;;3.00;1.00;;;;;;5109423;28;20308;-76
2024/01/13 03:46:19;;;;;;;7.85;5.15;;;2.90;1.00;;;;;;5112879;28;20238;-78
2024/01/13 03:48:48;;;;;;;6.28;4.45;;;2.90;1.00;;;;;;5111623;27;20764;-80
2024/01/13 03:51:22;;;;;;;5.15;4.13;;;2.80;1.00;;;;;;5109904;28;20236;-79
2024/01/13 03:53:50;;;;;;;7.63;4.93;;;2.80;1.00;;;;;;5113735;28;20235;-74
2024/01/13 03:56:17;;;;;;;18.27;6.85;;;2.80;1.00;;;;;;5113072;28;20235;-76
2024/01/13 03:58:46;;;;;;;5.15;4.65;;;2.80;1.00;;;;;;5110576;28;20240;-79
2024/01/13 04:01:13;;;;;;;7.05;5.25;;;2.80;1.00;;;;;;5113257;28;20231;-80
2024/01/13 04:03:40;;;;;;;5.07;4.57;;;2.70;1.00;;;;;;5107476;28;20272;-76
2024/01/13 04:06:12;;;;;;;7.53;5.60;;;2.70;1.00;;;;;;5108965;28;20231;-77
2024/01/13 04:08:40;;;;;;;7.40;4.80;;;2.70;1.00;;;;;;5110543;28;20236;-75
2024/01/13 04:11:09;;;;;;;10.18;5.47;;;2.70;1.00;;;;;;5112613;28;20262;-76
2024/01/13 04:13:37;;;;;;;6.88;5.18;;;2.60;1.00;;;;;;5107677;28;20231;-80
2024/01/13 04:16:04;;;;;;;7.30;5.20;;;2.60;1.00;;;;;;5110311;28;21669;-79
2024/01/13 04:18:34;;;;;;;8.80;5.40;;;2.60;1.00;;;;;;5112727;27;20235;-76
2024/01/13 04:21:09;;;;;;;7.60;5.80;;;2.60;1.00;;;;;;5110950;28;20232;-77
2024/01/13 04:23:38;;;;;;;7.10;4.90;;;2.60;1.00;;;;;;5108054;28;21020;-76
2024/01/13 04:26:08;;;;;;;5.90;4.80;;;2.60;1.00;;;;;;5111205;28;20235;-77
2024/01/13 04:28:37;;;;;;;5.60;4.80;;;2.70;1.00;;;;;;5106822;28;20238;-77
2024/01/13 04:31:07;;;;;;;6.80;4.97;;;2.60;1.00;;;;;;5110027;28;20231;-76
2024/01/13 04:33:38;;;;;;;10.13;5.75;;;2.60;1.00;;;;;;5110735;28;20235;-78
2024/01/13 04:36:08;;;;;;;7.47;4.95;;;2.60;1.00;;;;;;5109310;28;20991;-78
2024/01/13 04:38:38;;;;;;;7.13;4.90;;;2.60;1.00;;;;;;5084863;28;20237;-76
2024/01/13 04:41:14;;;;;;;6.47;5.15;;;2.60;1.00;;;;;;5099271;28;20238;-76
2024/01/13 04:43:41;;;;;;;6.88;5.55;;;2.50;1.00;;;;;;5109550;28;20238;-76
2024/01/13 04:46:10;;;;;;;5.10;4.10;;;2.50;1.00;;;;;;5110489;27;20247;-77
2024/01/13 04:48:39;;;;;;;6.68;5.05;;;2.50;1.00;;;;;;5109994;28;20242;-75
2024/01/13 04:51:07;;;;;;;5.45;4.85;;;2.50;1.00;;;;;;5084469;28;20237;-77
2024/01/13 04:53:34;;;;;;;5.50;4.95;;;2.50;1.00;;;;;;5104321;28;21182;-75
2024/01/13 04:56:06;;;;;;;6.47;5.60;;;2.50;1.00;;;;;;5106018;28;20239;-76
2024/01/13 04:58:34;;;;;;;7.20;5.43;;;2.50;1.00;;;;;;5108563;28;20236;-76
2024/01/13 05:01:02;;;;;;;7.20;5.40;;;2.50;1.00;;;;;;5105380;28;20328;-75
2024/01/13 05:03:29;;;;;;;5.50;4.88;;;2.50;1.00;;;;;;5103162;28;20243;-76
2024/01/13 05:05:56;;;;;;;7.03;4.80;;;2.50;1.00;;;;;;5108311;28;20240;-77
2024/01/13 05:08:23;;;;;;;6.47;5.20;;;2.50;1.00;;;;;;5106001;28;20236;-77
2024/01/13 05:10:50;;;;;;;8.90;5.72;;;2.50;1.00;;;;;;5106174;27;20321;-78
2024/01/13 05:13:20;;;;;;;7.55;5.28;;;2.50;1.00;;;;;;5106147;27;20227;-74
2024/01/13 05:15:48;;;;;;;6.65;4.90;;;2.50;1.00;;;;;;5104894;27;20620;-75
2024/01/13 05:18:15;;;;;;;5.82;3.63;;;2.50;1.00;;;;;;5107243;28;20245;-77
2024/01/13 05:20:42;;;;;;;5.60;5.03;;;2.50;1.00;;;;;;5106735;27;22811;-75
2024/01/13 05:23:10;;;;;;;4.97;4.22;;;2.60;1.00;;;;;;5105048;27;20262;-75
2024/01/13 05:25:38;;;;;;;8.25;4.65;;;2.60;1.00;;;;;;5109112;28;20289;-76
2024/01/13 05:28:06;;;;;;;5.60;4.78;;;2.60;1.00;;;;;;5109830;28;20721;-76
2024/01/13 05:30:34;;;;;;;6.47;4.47;;;2.60;1.00;;;;;;5111144;28;20804;-75
2024/01/13 05:33:02;;;;;;;6.32;4.80;;;2.60;1.00;;;;;;5112406;28;21900;-76
2024/01/13 05:35:29;;;;;;;6.10;4.32;;;2.60;1.00;;;;;;5108826;27;20272;-75
2024/01/13 05:37:56;;;;;;;5.65;4.80;;;2.70;1.00;;;;;;5111127;28;20668;-75
2024/01/13 05:40:24;;;;;;;7.50;4.47;;;2.70;1.00;;;;;;5104492;28;20331;-75
2024/01/13 05:42:51;;;;;;;4.88;4.38;;;2.70;1.00;;;;;;5108409;28;20319;-76
2024/01/13 05:45:18;;;;;;;6.03;4.40;;;2.70;1.00;;;;;;5108698;28;20244;-76
2024/01/13 05:47:46;;;;;;;6.03;4.97;;;2.60;1.00;;;;;;5099367;28;20650;-76
2024/01/13 05:50:14;;;;;;;5.93;4.03;;;2.60;1.00;;;;;;5112114;28;21050;-76
2024/01/13 05:52:42;;;;;;;5.13;4.15;;;2.60;1.00;;;;;;5113162;28;20951;-77
2024/01/13 05:55:09;;;;;;;7.15;3.90;;;2.60;1.00;;;;;;5113730;28;20295;-78
2024/01/13 05:57:36;;;;;;;6.00;4.75;;;2.50;1.00;;;;;;5109624;28;20243;-76
2024/01/13 06:00:04;;;;;;;6.55;4.90;;;2.50;1.00;;;;;;5097919;27;20243;-79
2024/01/13 06:02:31;;;;;;;8.85;5.30;;;2.50;1.00;;;;;;5111014;27;20227;-75
2024/01/13 06:05:02;;;;;;;5.50;4.45;;;2.50;1.00;;;;;;5112734;27;20243;-77
2024/01/13 06:07:29;;;;;;;6.10;4.82;;;2.50;1.00;;;;;;5115814;28;20246;-76
2024/01/13 06:09:56;;;;;;;6.95;5.05;;;2.60;1.00;;;;;;5113506;28;20259;-75
2024/01/13 06:12:23;;;;;;;6.97;5.00;;;2.60;1.00;;;;;;5111937;28;20310;-76
2024/01/13 06:14:50;;;;;;;6.63;5.32;;;2.60;1.00;;;;;;5112758;28;20247;-78
2024/01/13 06:17:17;;;;;;;6.90;5.50;;;2.60;1.00;;;;;;5115586;28;20715;-77
2024/01/13 06:19:44;;;;;;;7.00;5.65;;;2.60;1.00;;;;;;5115600;28;20239;-76
2024/01/13 06:22:13;;;;;;;7.63;5.60;;;2.60;1.00;;;;;;5116535;28;20288;-76
2024/01/13 06:24:40;;;;;;;9.07;6.45;;;2.60;1.00;;;;;;5115485;28;20328;-76
2024/01/13 06:27:07;;;;;;;6.38;5.75;;;2.60;1.00;;;;;;5097017;28;20250;-76
2024/01/13 06:29:35;;;;;;;7.82;6.32;;;2.60;1.00;;;;;;5114774;28;20243;-76
2024/01/13 06:32:02;;;;;;;8.85;6.75;;;2.60;1.00;;;;;;5113029;28;20247;-76
2024/01/13 06:34:29;;;;;;;7.93;6.50;;;2.60;1.00;;;;;;5116737;28;20293;-77
2024/01/13 06:36:56;;;;;;;9.60;6.45;;;2.60;1.00;;;;;;5114649;28;20243;-74
2024/01/13 06:39:24;;;;;;;14.57;7.85;;;2.60;1.00;;;;;;5114742;27;20322;-77
2024/01/13 06:41:52;;;;;;;8.45;7.30;;;2.60;1.00;;;;;;5110961;27;20243;-75
2024/01/13 06:44:18;;;;;;;8.77;6.78;;;2.60;1.00;;;;;;5113596;28;20235;-75
2024/01/13 06:46:45;;;;;;;10.57;6.78;;;2.70;1.00;;;;;;5110615;27;20260;-74
2024/01/13 06:49:13;;;;;;;8.43;6.95;;;2.70;1.00;;;;;;5114823;28;20246;-77
2024/01/13 06:51:39;;;;;;;7.95;6.82;;;2.70;1.00;;;;;;5113999;28;20235;-75
2024/01/13 06:54:07;;;;;;;7.63;6.72;;;2.70;1.00;;;;;;5100926;27;20242;-77
2024/01/13 06:56:37;;;;;;;7.65;6.10;;;2.70;1.00;;;;;;5108071;27;20236;-77
2024/01/13 06:59:07;;;;;;;8.13;6.57;;;2.80;1.00;;;;;;5111653;27;20774;-80
2024/01/13 07:01:34;;;;;;;8.10;6.22;;;2.70;1.00;;;;;;5113750;28;20239;-75
2024/01/13 07:04:01;;;;;;;7.13;6.43;;;2.70;1.00;;;;;;5111154;28;20282;-73
2024/01/13 07:06:29;;;;;;;7.55;6.10;;;2.70;1.00;;;;;;5112681;28;20379;-73
2024/01/13 07:08:57;;;;;;;6.68;5.53;;;2.70;1.00;;;;;;5109506;28;20228;-74
2024/01/13 07:11:26;;;;;;;7.28;5.75;;;2.70;1.00;;;;;;5111758;28;20246;-74
2024/01/13 07:13:54;;;;;;;9.82;6.15;;;2.70;1.00;;;;;;5112991;28;20239;-76
2024/01/13 07:16:21;;;;;;;7.20;5.72;;;2.60;1.00;;;;;;5110214;27;20247;-76
2024/01/13 07:18:48;;;;;;;6.95;5.65;;;2.60;1.00;;;;;;5116651;27;20300;-77
2024/01/13 07:21:15;;;;;;;6.50;5.50;;;2.60;1.00;;;;;;5113970;28;20266;-77
2024/01/13 07:23:43;;;;;;;6.00;5.40;;;2.50;1.00;;;;;;5097601;28;20258;-78
2024/01/13 07:26:10;;;;;;;6.03;5.07;;;2.50;1.00;;;;;;5115906;28;20235;-75
2024/01/13 07:28:37;;;;;;;6.15;5.30;;;2.50;1.00;;;;;;5112155;28;20291;-77
2024/01/13 07:31:07;;;;;;;6.43;5.20;;;2.50;1.00;;;;;;5115265;28;20257;-78
2024/01/13 07:33:34;;;;;;;6.95;5.85;;;2.50;1.00;;;;;;5111620;27;20244;-77
2024/01/13 07:36:01;;;;;;;5.85;4.85;;;2.60;1.00;;;;;;5112014;28;20238;-77
2024/01/13 07:38:28;;;;;;;5.45;4.45;;;2.60;1.00;;;;;;5113522;28;20231;-74
2024/01/13 07:40:55;;;;;;;5.13;4.47;;;2.60;1.00;;;;;;5111460;27;20330;-77
2024/01/13 07:43:24;;;;;;;6.57;5.03;;;2.60;1.00;;;;;;5112847;28;20308;-76
2024/01/13 07:45:50;;;;;;;6.03;5.45;;;2.60;1.00;;;;;;5111444;28;20726;-76
2024/01/13 07:48:19;;;;;;;5.70;5.15;;;2.60;1.00;;;;;;5116212;28;20673;-78
2024/01/13 07:50:47;;;;;;;5.72;5.10;;;2.60;1.00;;;;;;5112235;28;20326;-77
2024/01/13 07:53:14;;;;;;;5.40;4.57;;;2.60;1.00;;;;;;5113804;27;20242;-78
2024/01/13 07:55:41;;;;;;;5.47;4.38;;;2.60;1.00;;;;;;5113280;27;20234;-78
2024/01/13 07:58:08;;;;;;;6.55;5.47;;;2.60;1.00;;;;;;5112685;28;20238;-78
2024/01/13 08:00:35;;;;;;;4.40;3.90;;;2.60;1.00;;;;;;5111210;27;20301;-77
2024/01/13 08:03:04;;;;;;;4.75;4.35;;;2.60;1.00;;;;;;5112085;27;20247;-78
2024/01/13 08:05:32;;;;;;;7.85;5.80;;;2.60;1.00;;;;;;5113585;28;20235;-77
2024/01/13 08:08:00;;;;;;;5.28;4.72;;;2.70;1.00;;;;;;5111648;28;20236;-75
2024/01/13 08:10:27;;;;;;;4.57;4.07;;;2.70;1.00;;;;;;5115815;28;20722;-77
2024/01/13 08:12:55;;;;;;;5.10;4.53;;;2.70;1.00;;;;;;5112213;28;20240;-76
2024/01/13 08:15:21;;;;;;;6.45;4.43;;;2.70;1.00;;;;;;5119509;28;20300;-76
2024/01/13 08:17:48;;;;;;;4.50;4.10;;;2.80;1.00;;;;;;5117184;28;21090;-77
2024/01/13 08:20:15;;;;;;;5.15;4.65;;;2.70;1.00;;;;;;5088342;28;20259;-78
2024/01/13 08:22:46;;;;;;;4.90;3.35;;;2.70;1.00;;;;;;5114253;27;20231;-77
2024/01/13 08:25:13;;;;;;;4.82;4.05;;;2.70;1.00;;;;;;5116925;28;20793;-75
2024/01/13 08:27:40;;;;;;;4.47;3.80;;;2.70;1.00;;;;;;5115785;28;20237;-77
2024/01/13 08:30:08;;;;;;;4.55;4.15;;;2.70;1.00;;;;;;5119253;28;21015;-78
2024/01/13 08:32:35;;;;;;;4.68;4.28;;;2.80;1.00;;;;;;5108167;28;20244;-77
2024/01/13 08:35:07;;;;;;;4.13;3.60;;;2.80;1.00;;;;;;5114117;27;20232;-76
2024/01/13 08:37:34;;;;;;;4.20;3.80;;;2.70;1.00;;;;;;5119602;28;20242;-77
2024/01/13 08:40:04;;;;;;;3.88;3.47;;;2.70;1.00;;;;;;5115992;28;20247;-75
2024/01/13 08:42:31;;;;;;;3.67;3.28;;;2.80;1.00;;;;;;5115370;28;20269;-78
2024/01/13 08:44:59;;;;;;;3.67;3.38;;;2.80;1.00;;;;;;5113887;28;20314;-77
2024/01/13 08:47:27;;;;;;;6.53;4.10;;;2.80;1.00;;;;;;5100930;28;20235;-79
2024/01/13 08:49:55;;;;;;;4.10;3.70;;;2.80;1.00;;;;;;5118114;28;20235;-77
2024/01/13 08:52:22;;;;;;;4.10;3.70;;;2.80;1.00;;;;;;5120464;28;20899;-78
2024/01/13 08:54:49;;;;;;;4.05;3.13;;;2.90;1.00;;;;;;5110795;27;20235;-79
2024/01/13 08:57:17;;;;;;;3.70;3.35;;;2.90;1.00;;;;;;5101716;28;20330;-79
2024/01/13 08:59:44;;;;;;;5.68;4.22;;;2.90;1.00;;;;;;5117724;28;20295;-76
2024/01/13 09:02:11;;;;;;;3.78;3.42;;;2.90;1.00;;;;;;5117039;28;20289;-76
2024/01/13 09:04:39;;;;;;;4.10;3.15;;;3.00;1.00;;;;;;5116682;28;20231;-77
2024/01/13 09:07:06;;;;;;;6.32;3.20;;;3.00;1.00;;;;;;5120583;28;20966;-79
2024/01/13 09:09:33;;;;;;;3.72;3.28;;;2.90;1.00;;;;;;5120130;28;20483;-75
2024/01/13 09:12:00;;;;;;;6.45;3.25;;;2.80;1.00;;;;;;5120726;28;20236;-77
2024/01/13 09:14:28;;;;;;;3.83;3.15;;;2.80;1.00;;;;;;5116660;28;20267;-75
2024/01/13 09:16:55;;;;;;;6.65;3.10;;;2.80;1.00;;;;;;5116901;28;20239;-77
2024/01/13 09:19:22;;;;;;;4.97;3.95;;;2.80;1.00;;;;;;5124315;28;20317;-79
2024/01/13 09:21:49;;;;;;;4.07;3.55;;;2.90;1.00;;;;;;5120894;28;20244;-77
2024/01/13 09:24:16;;;;;;;3.70;3.40;;;2.90;1.00;;;;;;5121934;28;20223;-76
2024/01/13 09:26:48;;;;;;;5.63;3.50;;;2.90;1.00;;;;;;5115980;28;20237;-77
2024/01/13 09:29:17;;;;;;;3.58;3.22;;;3.00;1.00;;;;;;5122245;28;21187;-76
2024/01/13 09:31:45;;;;;;;4.97;3.92;;;3.00;1.00;;;;;;5118174;27;20269;-79
2024/01/13 09:34:13;;;;;;;3.88;3.03;;;3.00;1.00;;;;;;5120032;27;20282;-75
2024/01/13 09:36:40;;;;;;;4.45;3.45;;;3.00;1.00;;;;;;5120384;28;20243;-77
2024/01/13 09:39:11;;;;;;;4.30;3.55;;;3.10;1.00;;;;;;5120327;28;20239;-77
2024/01/13 09:41:40;;;;;;;8.50;4.70;;;3.10;1.00;;;;;;5122237;28;20260;-76
2024/01/13 09:44:14;;;;;;;3.83;3.25;;;3.10;1.00;;;;;;5121719;28;21114;-79
2024/01/13 09:46:42;;;;;;;3.58;3.22;;;3.10;1.00;;;;;;5121707;28;20236;-78
2024/01/13 09:49:12;;;;;;;4.43;3.95;;;3.10;1.00;;;;;;5119026;28;20263;-76
2024/01/13 09:51:40;;;;;;;3.70;3.40;;;3.00;1.00;;;;;;5119343;28;20235;-77
2024/01/13 09:54:12;;;;;;;4.68;3.47;;;3.00;1.00;;;;;;5117823;28;20242;-76
2024/01/13 09:56:44;;;;;;;3.67;3.30;;;3.00;1.00;;;;;;5121572;28;20239;-76
2024/01/13 09:59:11;;;;;;;4.53;4.05;;;3.00;1.00;;;;;;5121499;28;20247;-77
2024/01/13 10:01:39;;;;;;;4.50;3.25;;;3.00;1.00;;;;;;5118523;27;20342;-77
2024/01/13 10:04:07;;;;;;;3.08;2.72;;;3.10;1.00;;;;;;5119464;28;20227;-77
2024/01/13 10:06:36;;;;;;;4.07;3.00;;;3.20;1.00;;;;;;5117461;28;20412;-79
2024/01/13 10:09:04;;;;;;;3.47;3.15;;;3.20;1.00;;;;;;5120404;28;20243;-77
2024/01/13 10:11:30;;;;;;;4.38;3.55;;;3.30;1.00;;;;;;5112321;27;20254;-73
2024/01/13 10:14:02;;;;;;;2.93;2.67;;;3.40;1.00;;;;;;5111988;28;20633;-72
2024/01/13 10:16:30;;;;;;;4.25;3.20;;;3.40;1.00;;;;;;5109116;28;21194;-71
2024/01/13 10:18:58;;;;;;;3.83;3.25;;;3.40;1.00;;;;;;5112292;28;21180;-74
2024/01/13 10:21:25;;;;;;;3.38;3.08;;;3.30;1.00;;;;;;5122235;28;20247;-77
2024/01/13 10:23:56;;;;;;;4.00;3.25;;;3.30;1.00;;;;;;5110359;28;20239;-71
2024/01/13 10:26:24;;;;;;;3.65;3.30;;;3.30;1.00;;;;;;5111960;28;20239;-72
2024/01/13 10:28:53;;;;;;;3.55;3.22;;;3.30;1.00;;;;;;5111004;28;20326;-71
2024/01/13 10:31:20;;;;;;;2.50;2.28;;;3.30;1.00;;;;;;5110306;27;20234;-75
2024/01/13 10:33:48;;;;;;;3.38;3.08;;;3.30;1.00;;;;;;5097720;27;20239;-71
2024/01/13 10:36:16;;;;;;;2.97;2.60;;;3.30;1.00;;;;;;5110638;27;20240;-71
2024/01/13 10:38:43;;;;;;;3.30;2.55;;;3.30;1.00;;;;;;5110915;28;20249;-77
2024/01/13 10:41:12;;;;;;;5.25;4.78;;;3.30;1.00;;;;;;5111209;28;20239;-77
2024/01/13 10:43:41;;;;;;;3.40;3.10;;;3.30;1.00;;;;;;5115996;28;20317;-76
2024/01/13 10:46:11;;;;;;;2.85;2.63;;;3.30;1.00;;;;;;5104196;28;20323;-78
2024/01/13 10:48:42;;;;;;;3.10;2.80;;;3.30;1.00;;;;;;5112660;27;20734;-76
2024/01/13 10:51:20;;;;;;;3.50;3.15;;;3.20;1.00;;;;;;5121903;27;20241;-77
2024/01/13 10:53:49;;;;;;;3.20;3.00;;;3.30;1.00;;;;;;5117666;28;20325;-76
2024/01/13 10:56:18;;;;;;;3.08;2.78;;;3.30;1.00;;;;;;5118301;28;20262;-78
2024/01/13 10:58:46;;;;;;;3.00;2.80;;;3.30;1.00;;;;;;5118856;28;20227;-79
2024/01/13 11:01:13;;;;;;;3.35;2.88;;;3.30;1.00;;;;;;5119026;28;20243;-79
2024/01/13 11:03:41;;;;;;;4.40;4.05;;;3.40;1.00;;;;;;5118346;28;20239;-78
2024/01/13 11:06:09;;;;;;;4.28;3.58;;;3.40;1.00;;;;;;5117618;28;20245;-76
2024/01/13 11:08:37;;;;;;;2.78;2.58;;;3.30;1.00;;;;;;5115972;28;20239;-78
2024/01/13 11:11:06;;;;;;;2.80;2.60;;;3.40;1.00;;;;;;5118034;28;20263;-72
2024/01/13 11:13:39;;;;;;;3.10;2.88;;;3.30;1.00;;;;;;5113895;28;20291;-76
2024/01/13 11:16:10;;;;;;;4.05;2.97;;;3.40;1.00;;;;;;5122076;28;20227;-77
2024/01/13 11:18:40;;;;;;;3.30;3.00;;;3.30;1.00;;;;;;5102751;28;21076;-70
2024/01/13 11:21:08;;;;;;;2.50;2.30;;;3.30;1.00;;;;;;5114627;28;20239;-79
2024/01/13 11:23:39;;;;;;;2.50;2.30;;;3.30;1.00;;;;;;5117639;28;20243;-78
2024/01/13 11:26:07;;;;;;;4.43;3.08;;;3.30;1.00;;;;;;5117669;28;20235;-77
2024/01/13 11:28:48;;;;;;;3.70;3.17;;;3.20;1.00;;;;;;5117113;28;20254;-77
2024/01/13 11:31:37;;;;;;;2.78;2.58;;;3.20;1.00;;;;;;5115603;28;20231;-76
2024/01/13 11:34:08;;;;;;;3.40;3.10;;;3.10;1.00;;;;;;5114599;27;20235;-76
2024/01/13 11:36:39;;;;;;;3.25;2.95;;;3.20;1.00;;;;;;5118424;28;20230;-76
2024/01/13 11:39:08;;;;;;;3.35;3.05;;;3.20;1.00;;;;;;5116749;28;20316;-77
2024/01/13 11:41:45;;;;;;;3.22;2.92;;;3.20;1.00;;;;;;5113721;28;20243;-78
2024/01/13 11:44:22;;;;;;;3.00;2.70;;;3.20;1.00;;;;;;5115059;28;20242;-79
2024/01/13 11:47:05;;;;;;;3.90;2.80;;;3.20;1.00;;;;;;5115850;28;20234;-79
2024/01/13 11:49:33;;;;;;;6.03;2.55;;;3.10;1.00;;;;;;5116996;28;20233;-77
2024/01/13 11:52:01;;;;;;;3.00;2.70;;;3.10;1.00;;;;;;5119310;28;20297;-77
2024/01/13 11:54:29;;;;;;;3.55;2.95;;;3.00;1.00;;;;;;5117124;28;20240;-79
2024/01/13 11:56:59;;;;;;;3.50;3.20;;;3.00;1.00;;;;;;5115056;28;20338;-75
2024/01/13 11:59:27;;;;;;;3.72;3.05;;;3.10;1.00;;;;;;5118539;28;20238;-79
2024/01/13 12:01:56;;;;;;;3.05;2.75;;;3.20;1.00;;;;;;5118309;27;20242;-76
2024/01/13 12:04:26;;;;;;;2.67;2.47;;;3.20;1.00;;;;;;5113183;27;20746;-73
2024/01/13 12:06:54;;;;;;;3.70;3.10;;;3.20;1.00;;;;;;5097879;28;20297;-71
2024/01/13 12:09:23;;;;;;;3.70;3.40;;;3.10;1.00;;;;;;5113614;27;20231;-72
2024/01/13 12:11:54;;;;;;;3.40;2.90;;;3.20;1.00;;;;;;5111532;28;20282;-70
2024/01/13 12:14:29;;;;;;;3.22;2.90;;;3.20;1.00;;;;;;5116787;28;20232;-73
2024/01/13 12:17:04;;;;;;;2.63;2.40;;;3.20;1.00;;;;;;5117032;28;20270;-73
2024/01/13 12:19:36;;;;;;;2.65;2.45;;;3.20;1.00;;;;;;5119814;28;20250;-73
2024/01/13 12:22:04;;;;;;;3.08;2.78;;;3.20;1.00;;;;;;5114433;28;20238;-79
2024/01/13 12:24:34;;;;;;;3.45;2.63;;;3.30;1.00;;;;;;5119566;28;20295;-77
2024/01/13 12:27:02;;;;;;;3.30;2.70;;;3.30;1.00;;;;;;5113998;28;20353;-70
2024/01/13 12:29:31;;;;;;;3.17;2.70;;;3.30;1.00;;;;;;5112795;28;20240;-71
2024/01/13 12:31:58;;;;;;;2.70;2.50;;;3.40;1.00;;;;;;5113426;28;20316;-71
2024/01/13 12:34:25;;;;;;;2.80;2.58;;;3.40;1.00;;;;;;5098225;27;20243;-71
2024/01/13 12:36:54;;;;;;;2.63;2.42;;;3.50;1.00;;;;;;5110837;28;20243;-71
2024/01/13 12:39:24;;;;;;;2.08;1.98;;;3.60;1.00;;;;;;5112770;28;20257;-70
2024/01/13 12:41:52;;;;;;;2.70;2.28;;;3.60;1.00;;;;;;5111992;28;20247;-72
2024/01/13 12:44:19;;;;;;;2.60;2.40;;;3.60;1.00;;;;;;5115644;28;20232;-73
2024/01/13 12:46:55;;;;;;;2.65;2.45;;;3.60;1.00;;;;;;5113687;28;20244;-74
2024/01/13 12:49:22;;;;;;;4.95;2.25;;;3.60;1.00;;;;;;5114485;28;20383;-74
2024/01/13 12:51:52;;;;;;;2.28;2.08;;;3.50;1.00;;;;;;5091788;28;20993;-72
2024/01/13 12:54:22;;;;;;;4.45;3.28;;;3.50;1.00;;;;;;5114151;28;20289;-73
2024/01/13 12:56:52;;;;;;;2.40;2.13;;;3.40;1.00;;;;;;5113410;28;20255;-74
2024/01/13 12:59:19;;;;;;;2.72;2.35;;;3.40;1.00;;;;;;5110785;27;20239;-72
2024/01/13 13:01:48;;;;;;;2.38;2.17;;;3.30;1.00;;;;;;5112801;28;20238;-73
2024/01/13 13:04:15;;;;;;;2.08;1.70;;;3.30;1.00;;;;;;5091733;28;20243;-75
2024/01/13 13:06:42;;;;;;;2.75;2.55;;;3.20;1.00;;;;;;5113648;28;20259;-76
2024/01/13 13:09:10;;;;;;;3.13;2.25;;;3.30;1.00;;;;;;5114407;28;20235;-72
2024/01/13 13:11:37;;;;;;;2.50;2.30;;;3.30;1.00;;;;;;5112295;28;21311;-73